sensor_id;sensor_type;location;lat;lon;timestamp;temperature;humidity
23815;DHT22;12088;53.078;8.720;2022-08-18T00:01:04;19.70;99.90
23815;DHT22;12088;53.078;8.720;2022-08-18T00:03:30;19.60;99.90
23815;DHT22;12088;53.078;8.720;2022-08-18T00:05:56;19.60;99.90
23815;DHT22;12088;53.078;8.720;2022-08-18T00:08:21;19.50;99.90
23815;DHT22;12088;53.078;8.720;2022-08-18T00:10:47;19.50;99.90
23815;DHT22;12088;53.078;8.720;2022-08-18T00:13:12;19.70;99.90
23815;DHT22;12088;53.078;8.720;2022-08-18T00:15:38;19.70;99.90
23815;DHT22;12088;53.078;8.720;2022-08-18T00:18:03;19.70;99.90
23815;DHT22;12088;53.078;8.720;2022-08-18T00:20:28;19.70;99.90
23815;DHT22;12088;53.078;8.720;2022-08-18T00:22:54;19.70;99.90
23815;DHT22;12088;53.078;8.720;2022-08-18T00:25:23;19.70;99.90
23815;DHT22;12088;53.078;8.720;2022-08-18T00:27:49;19.60;99.90
23815;DHT22;12088;53.078;8.720;2022-08-18T00:30:17;19.60;99.90
23815;DHT22;12088;53.078;8.720;2022-08-18T00:32:50;19.50;99.90
23815;DHT22;12088;53.078;8.720;2022-08-18T00:35:19;19.40;99.90
23815;DHT22;12088;53.078;8.720;2022-08-18T00:37:46;19.30;99.90
23815;DHT22;12088;53.078;8.720;2022-08-18T00:40:16;19.30;99.90
23815;DHT22;12088;53.078;8.720;2022-08-18T00:42:46;19.20;99.90
23815;DHT22;12088;53.078;8.720;2022-08-18T00:45:18;19.20;99.90
23815;DHT22;12088;53.078;8.720;2022-08-18T00:47:45;19.00;99.90
23815;DHT22;12088;53.078;8.720;2022-08-18T00:50:26;18.90;99.90
23815;DHT22;12088;53.078;8.720;2022-08-18T00:52:59;18.80;99.90
23815;DHT22;12088;53.078;8.720;2022-08-18T00:55:27;18.80;99.90
23815;DHT22;12088;53.078;8.720;2022-08-18T00:57:57;18.80;99.90
23815;DHT22;12088;53.078;8.720;2022-08-18T01:00:26;18.80;99.90
23815;DHT22;12088;53.078;8.720;2022-08-18T01:02:55;18.80;99.90
23815;DHT22;12088;53.078;8.720;2022-08-18T01:05:28;18.70;99.90
23815;DHT22;12088;53.078;8.720;2022-08-18T01:07:55;18.60;99.90
23815;DHT22;12088;53.078;8.720;2022-08-18T01:10:22;18.50;99.90
23815;DHT22;12088;53.078;8.720;2022-08-18T01:12:53;18.70;99.90
23815;DHT22;12088;53.078;8.720;2022-08-18T01:15:20;18.80;99.90
23815;DHT22;12088;53.078;8.720;2022-08-18T01:17:46;19.00;99.90
23815;DHT22;12088;53.078;8.720;2022-08-18T01:20:57;19.10;99.90
23815;DHT22;12088;53.078;8.720;2022-08-18T01:23:44;19.30;99.90
23815;DHT22;12088;53.078;8.720;2022-08-18T01:26:10;19.30;99.90
23815;DHT22;12088;53.078;8.720;2022-08-18T01:28:40;19.40;99.90
23815;DHT22;12088;53.078;8.720;2022-08-18T01:31:08;19.50;99.90
23815;DHT22;12088;53.078;8.720;2022-08-18T01:33:40;19.50;99.90
23815;DHT22;12088;53.078;8.720;2022-08-18T01:36:13;19.50;99.90
23815;DHT22;12088;53.078;8.720;2022-08-18T01:38:47;19.50;99.90
23815;DHT22;12088;53.078;8.720;2022-08-18T01:41:12;19.60;99.90
23815;DHT22;12088;53.078;8.720;2022-08-18T01:43:38;19.60;99.90
23815;DHT22;12088;53.078;8.720;2022-08-18T01:46:04;19.60;99.90
23815;DHT22;12088;53.078;8.720;2022-08-18T01:48:32;19.60;99.90
23815;DHT22;12088;53.078;8.720;2022-08-18T01:50:59;19.70;99.90
23815;DHT22;12088;53.078;8.720;2022-08-18T01:53:25;19.70;99.90
23815;DHT22;12088;53.078;8.720;2022-08-18T01:55:51;19.70;99.90
23815;DHT22;12088;53.078;8.720;2022-08-18T01:58:17;19.70;99.90
23815;DHT22;12088;53.078;8.720;2022-08-18T02:00:42;19.70;99.90
23815;DHT22;12088;53.078;8.720;2022-08-18T02:03:10;19.70;99.90
23815;DHT22;12088;53.078;8.720;2022-08-18T02:05:43;19.70;99.90
23815;DHT22;12088;53.078;8.720;2022-08-18T02:08:09;19.70;99.90
23815;DHT22;12088;53.078;8.720;2022-08-18T02:10:37;19.70;99.90
23815;DHT22;12088;53.078;8.720;2022-08-18T02:13:03;19.70;99.90
23815;DHT22;12088;53.078;8.720;2022-08-18T02:15:30;19.80;99.90
23815;DHT22;12088;53.078;8.720;2022-08-18T02:17:55;19.80;99.90
23815;DHT22;12088;53.078;8.720;2022-08-18T02:20:21;19.80;99.90
23815;DHT22;12088;53.078;8.720;2022-08-18T02:22:47;19.70;99.90
23815;DHT22;12088;53.078;8.720;2022-08-18T02:25:14;19.70;99.90
23815;DHT22;12088;53.078;8.720;2022-08-18T02:27:40;19.80;99.90
23815;DHT22;12088;53.078;8.720;2022-08-18T02:30:08;19.80;99.90
23815;DHT22;12088;53.078;8.720;2022-08-18T02:32:34;19.80;99.90
23815;DHT22;12088;53.078;8.720;2022-08-18T02:35:00;19.80;99.90
23815;DHT22;12088;53.078;8.720;2022-08-18T02:37:26;19.80;99.90
23815;DHT22;12088;53.078;8.720;2022-08-18T02:39:51;19.80;99.90
23815;DHT22;12088;53.078;8.720;2022-08-18T02:42:17;19.80;99.90
23815;DHT22;12088;53.078;8.720;2022-08-18T02:44:42;19.80;99.90
23815;DHT22;12088;53.078;8.720;2022-08-18T02:47:08;19.80;99.90
23815;DHT22;12088;53.078;8.720;2022-08-18T02:49:34;19.80;99.90
23815;DHT22;12088;53.078;8.720;2022-08-18T02:52:01;19.80;99.90
23815;DHT22;12088;53.078;8.720;2022-08-18T02:54:27;19.90;99.90
23815;DHT22;12088;53.078;8.720;2022-08-18T02:56:52;19.90;99.90
23815;DHT22;12088;53.078;8.720;2022-08-18T02:59:23;19.90;99.90
23815;DHT22;12088;53.078;8.720;2022-08-18T03:01:51;19.80;99.90
23815;DHT22;12088;53.078;8.720;2022-08-18T03:04:22;19.90;99.90
23815;DHT22;12088;53.078;8.720;2022-08-18T03:06:48;19.90;99.90
23815;DHT22;12088;53.078;8.720;2022-08-18T03:09:16;19.90;99.90
23815;DHT22;12088;53.078;8.720;2022-08-18T03:11:42;19.90;99.90
23815;DHT22;12088;53.078;8.720;2022-08-18T03:14:08;19.90;99.90
23815;DHT22;12088;53.078;8.720;2022-08-18T03:16:36;19.90;99.90
23815;DHT22;12088;53.078;8.720;2022-08-18T03:19:02;19.90;99.90
23815;DHT22;12088;53.078;8.720;2022-08-18T03:21:31;19.90;99.90
23815;DHT22;12088;53.078;8.720;2022-08-18T03:24:00;19.90;99.90
23815;DHT22;12088;53.078;8.720;2022-08-18T03:26:25;19.90;99.90
23815;DHT22;12088;53.078;8.720;2022-08-18T03:28:53;19.90;99.90
23815;DHT22;12088;53.078;8.720;2022-08-18T03:31:20;19.90;99.90
23815;DHT22;12088;53.078;8.720;2022-08-18T03:33:47;19.90;99.90
23815;DHT22;12088;53.078;8.720;2022-08-18T03:36:16;19.90;99.90
23815;DHT22;12088;53.078;8.720;2022-08-18T03:38:43;19.90;99.90
23815;DHT22;12088;53.078;8.720;2022-08-18T03:41:11;19.90;99.90
23815;DHT22;12088;53.078;8.720;2022-08-18T03:43:37;19.90;99.90
23815;DHT22;12088;53.078;8.720;2022-08-18T03:46:06;19.90;99.90
23815;DHT22;12088;53.078;8.720;2022-08-18T03:48:32;19.90;99.90
23815;DHT22;12088;53.078;8.720;2022-08-18T03:51:05;19.90;99.90
23815;DHT22;12088;53.078;8.720;2022-08-18T03:53:32;19.90;99.90
23815;DHT22;12088;53.078;8.720;2022-08-18T03:55:59;19.90;99.90
23815;DHT22;12088;53.078;8.720;2022-08-18T03:58:25;19.90;99.90
23815;DHT22;12088;53.078;8.720;2022-08-18T04:00:50;19.90;99.90
23815;DHT22;12088;53.078;8.720;2022-08-18T04:03:15;19.90;99.90
23815;DHT22;12088;53.078;8.720;2022-08-18T04:05:41;19.90;99.90
23815;DHT22;12088;53.078;8.720;2022-08-18T04:08:06;19.80;99.90
23815;DHT22;12088;53.078;8.720;2022-08-18T04:10:33;19.80;99.90
23815;DHT22;12088;53.078;8.720;2022-08-18T04:13:00;19.80;99.90
23815;DHT22;12088;53.078;8.720;2022-08-18T04:15:25;19.80;99.90
23815;DHT22;12088;53.078;8.720;2022-08-18T04:17:51;19.80;99.90
23815;DHT22;12088;53.078;8.720;2022-08-18T04:20:16;19.90;99.90
23815;DHT22;12088;53.078;8.720;2022-08-18T04:22:42;19.90;99.90
23815;DHT22;12088;53.078;8.720;2022-08-18T04:25:09;19.90;99.90
23815;DHT22;12088;53.078;8.720;2022-08-18T04:27:36;19.90;99.90
23815;DHT22;12088;53.078;8.720;2022-08-18T04:30:04;19.90;99.90
23815;DHT22;12088;53.078;8.720;2022-08-18T04:32:30;19.90;99.90
23815;DHT22;12088;53.078;8.720;2022-08-18T04:34:56;19.90;99.90
23815;DHT22;12088;53.078;8.720;2022-08-18T04:37:21;20.00;99.90
23815;DHT22;12088;53.078;8.720;2022-08-18T04:39:47;20.00;99.90
23815;DHT22;12088;53.078;8.720;2022-08-18T04:42:13;20.00;99.90
23815;DHT22;12088;53.078;8.720;2022-08-18T04:44:39;20.00;99.90
23815;DHT22;12088;53.078;8.720;2022-08-18T04:47:05;20.00;99.90
23815;DHT22;12088;53.078;8.720;2022-08-18T04:49:34;20.00;99.90
23815;DHT22;12088;53.078;8.720;2022-08-18T04:52:00;20.00;99.90
23815;DHT22;12088;53.078;8.720;2022-08-18T04:54:45;20.00;99.90
23815;DHT22;12088;53.078;8.720;2022-08-18T04:57:13;20.00;99.90
23815;DHT22;12088;53.078;8.720;2022-08-18T04:59:40;20.00;99.90
23815;DHT22;12088;53.078;8.720;2022-08-18T05:02:07;20.00;99.90
23815;DHT22;12088;53.078;8.720;2022-08-18T05:04:34;20.00;99.90
23815;DHT22;12088;53.078;8.720;2022-08-18T05:07:02;20.00;99.90
23815;DHT22;12088;53.078;8.720;2022-08-18T05:09:28;20.00;99.90
23815;DHT22;12088;53.078;8.720;2022-08-18T05:11:53;20.00;99.90
23815;DHT22;12088;53.078;8.720;2022-08-18T05:14:19;20.00;99.90
23815;DHT22;12088;53.078;8.720;2022-08-18T05:16:45;20.00;99.90
23815;DHT22;12088;53.078;8.720;2022-08-18T05:19:11;20.00;99.90
23815;DHT22;12088;53.078;8.720;2022-08-18T05:21:37;20.00;99.90
23815;DHT22;12088;53.078;8.720;2022-08-18T05:24:06;20.10;99.90
23815;DHT22;12088;53.078;8.720;2022-08-18T05:26:32;20.10;99.90
23815;DHT22;12088;53.078;8.720;2022-08-18T05:28:58;20.10;99.90
23815;DHT22;12088;53.078;8.720;2022-08-18T05:31:26;20.00;99.90
23815;DHT22;12088;53.078;8.720;2022-08-18T05:33:53;20.10;99.90
23815;DHT22;12088;53.078;8.720;2022-08-18T05:39:29;20.10;99.90
23815;DHT22;12088;53.078;8.720;2022-08-18T05:42:07;20.00;99.90
23815;DHT22;12088;53.078;8.720;2022-08-18T05:44:40;20.10;99.90
23815;DHT22;12088;53.078;8.720;2022-08-18T05:47:25;20.10;99.90
23815;DHT22;12088;53.078;8.720;2022-08-18T05:49:52;20.10;99.90
23815;DHT22;12088;53.078;8.720;2022-08-18T05:52:30;20.00;99.90
23815;DHT22;12088;53.078;8.720;2022-08-18T05:55:09;20.10;99.90
23815;DHT22;12088;53.078;8.720;2022-08-18T05:58:00;20.20;99.90
23815;DHT22;12088;53.078;8.720;2022-08-18T06:00:27;20.30;99.90
23815;DHT22;12088;53.078;8.720;2022-08-18T06:03:01;20.30;99.90
23815;DHT22;12088;53.078;8.720;2022-08-18T06:05:34;20.40;99.90
23815;DHT22;12088;53.078;8.720;2022-08-18T06:08:03;20.50;99.90
23815;DHT22;12088;53.078;8.720;2022-08-18T06:10:30;20.50;99.90
23815;DHT22;12088;53.078;8.720;2022-08-18T06:12:59;20.50;99.90
23815;DHT22;12088;53.078;8.720;2022-08-18T06:16:04;20.50;99.90
23815;DHT22;12088;53.078;8.720;2022-08-18T06:24:00;20.80;99.90
23815;DHT22;12088;53.078;8.720;2022-08-18T06:26:40;20.80;99.90
23815;DHT22;12088;53.078;8.720;2022-08-18T06:32:34;20.90;99.90
23815;DHT22;12088;53.078;8.720;2022-08-18T06:37:32;21.20;99.90
23815;DHT22;12088;53.078;8.720;2022-08-18T06:39:58;21.20;99.90
23815;DHT22;12088;53.078;8.720;2022-08-18T06:42:26;21.30;99.90
23815;DHT22;12088;53.078;8.720;2022-08-18T06:45:06;21.50;99.90
23815;DHT22;12088;53.078;8.720;2022-08-18T06:47:56;21.70;99.90
23815;DHT22;12088;53.078;8.720;2022-08-18T06:50:37;21.80;99.90
23815;DHT22;12088;53.078;8.720;2022-08-18T06:53:06;21.90;99.90
23815;DHT22;12088;53.078;8.720;2022-08-18T06:55:44;22.30;99.90
23815;DHT22;12088;53.078;8.720;2022-08-18T07:00:53;22.60;99.90
23815;DHT22;12088;53.078;8.720;2022-08-18T07:03:22;22.60;99.90
23815;DHT22;12088;53.078;8.720;2022-08-18T07:08:40;22.40;99.90
23815;DHT22;12088;53.078;8.720;2022-08-18T07:13:49;22.10;99.90
23815;DHT22;12088;53.078;8.720;2022-08-18T07:18:53;21.90;99.90
23815;DHT22;12088;53.078;8.720;2022-08-18T07:21:28;21.90;99.90
23815;DHT22;12088;53.078;8.720;2022-08-18T07:24:01;21.90;99.90
23815;DHT22;12088;53.078;8.720;2022-08-18T07:26:27;21.90;99.90
23815;DHT22;12088;53.078;8.720;2022-08-18T07:28:52;21.90;99.90
23815;DHT22;12088;53.078;8.720;2022-08-18T07:31:41;21.90;99.90
23815;DHT22;12088;53.078;8.720;2022-08-18T07:34:16;21.90;99.90
23815;DHT22;12088;53.078;8.720;2022-08-18T07:37:41;21.90;99.90
23815;DHT22;12088;53.078;8.720;2022-08-18T07:39:58;22.00;99.90
23815;DHT22;12088;53.078;8.720;2022-08-18T07:45:18;22.20;99.90
23815;DHT22;12088;53.078;8.720;2022-08-18T07:48:18;22.20;99.90
23815;DHT22;12088;53.078;8.720;2022-08-18T07:56:04;22.50;99.90
23815;DHT22;12088;53.078;8.720;2022-08-18T07:58:46;22.50;99.90
23815;DHT22;12088;53.078;8.720;2022-08-18T08:01:33;22.60;99.90
23815;DHT22;12088;53.078;8.720;2022-08-18T08:04:10;22.60;99.90
23815;DHT22;12088;53.078;8.720;2022-08-18T08:07:04;22.60;99.90
23815;DHT22;12088;53.078;8.720;2022-08-18T08:09:43;22.60;99.90
23815;DHT22;12088;53.078;8.720;2022-08-18T08:12:36;22.50;99.90
23815;DHT22;12088;53.078;8.720;2022-08-18T08:20:57;22.60;99.90
23815;DHT22;12088;53.078;8.720;2022-08-18T08:23:28;22.60;99.90
23815;DHT22;12088;53.078;8.720;2022-08-18T08:31:57;23.20;99.90
23815;DHT22;12088;53.078;8.720;2022-08-18T08:34:38;23.20;99.90
23815;DHT22;12088;53.078;8.720;2022-08-18T08:37:15;23.30;99.90
23815;DHT22;12088;53.078;8.720;2022-08-18T08:39:49;23.10;99.90
23815;DHT22;12088;53.078;8.720;2022-08-18T08:42:24;23.00;99.90
23815;DHT22;12088;53.078;8.720;2022-08-18T08:44:55;22.80;99.90
23815;DHT22;12088;53.078;8.720;2022-08-18T08:47:31;22.80;99.90
23815;DHT22;12088;53.078;8.720;2022-08-18T08:50:09;22.90;99.90
23815;DHT22;12088;53.078;8.720;2022-08-18T08:55:22;22.80;99.90
23815;DHT22;12088;53.078;8.720;2022-08-18T09:00:35;22.90;99.90
23815;DHT22;12088;53.078;8.720;2022-08-18T09:03:20;22.90;99.90
23815;DHT22;12088;53.078;8.720;2022-08-18T09:11:50;24.00;99.90
23815;DHT22;12088;53.078;8.720;2022-08-18T09:17:26;24.20;99.90
23815;DHT22;12088;53.078;8.720;2022-08-18T09:23:10;23.90;99.90
23815;DHT22;12088;53.078;8.720;2022-08-18T09:28:08;24.50;99.90
23815;DHT22;12088;53.078;8.720;2022-08-18T09:30:42;24.50;99.90
23815;DHT22;12088;53.078;8.720;2022-08-18T09:33:19;24.60;99.90
23815;DHT22;12088;53.078;8.720;2022-08-18T09:38:27;24.30;99.90
23815;DHT22;12088;53.078;8.720;2022-08-18T09:41:19;24.50;99.90
23815;DHT22;12088;53.078;8.720;2022-08-18T09:44:05;24.50;99.90
23815;DHT22;12088;53.078;8.720;2022-08-18T09:52:00;25.30;99.90
23815;DHT22;12088;53.078;8.720;2022-08-18T09:55:00;25.70;99.90
23815;DHT22;12088;53.078;8.720;2022-08-18T09:57:31;25.90;99.90
23815;DHT22;12088;53.078;8.720;2022-08-18T10:15:57;32.60;99.90
23815;DHT22;12088;53.078;8.720;2022-08-18T10:21:18;35.00;99.90
23815;DHT22;12088;53.078;8.720;2022-08-18T10:31:29;33.10;99.90
23815;DHT22;12088;53.078;8.720;2022-08-18T10:34:10;31.40;99.90
23815;DHT22;12088;53.078;8.720;2022-08-18T10:36:58;30.20;99.90
23815;DHT22;12088;53.078;8.720;2022-08-18T10:39:46;29.30;99.90
23815;DHT22;12088;53.078;8.720;2022-08-18T10:42:31;28.70;99.90
23815;DHT22;12088;53.078;8.720;2022-08-18T10:45:25;28.60;99.90
23815;DHT22;12088;53.078;8.720;2022-08-18T10:50:34;33.20;99.90
23815;DHT22;12088;53.078;8.720;2022-08-18T10:53:16;34.80;99.90
23815;DHT22;12088;53.078;8.720;2022-08-18T10:55:59;35.10;99.90
23815;DHT22;12088;53.078;8.720;2022-08-18T11:01:21;36.60;99.90
23815;DHT22;12088;53.078;8.720;2022-08-18T11:04:04;37.60;99.90
23815;DHT22;12088;53.078;8.720;2022-08-18T11:06:38;38.00;99.90
23815;DHT22;12088;53.078;8.720;2022-08-18T11:09:05;38.50;99.90
23815;DHT22;12088;53.078;8.720;2022-08-18T11:11:42;38.50;99.90
23815;DHT22;12088;53.078;8.720;2022-08-18T11:14:36;39.20;99.90
23815;DHT22;12088;53.078;8.720;2022-08-18T11:17:15;38.90;98.70
23815;DHT22;12088;53.078;8.720;2022-08-18T11:19:45;37.60;98.60
23815;DHT22;12088;53.078;8.720;2022-08-18T11:22:28;36.50;99.90
23815;DHT22;12088;53.078;8.720;2022-08-18T11:24:55;34.90;99.90
23815;DHT22;12088;53.078;8.720;2022-08-18T11:27:23;33.40;99.90
23815;DHT22;12088;53.078;8.720;2022-08-18T11:29:49;31.90;99.90
23815;DHT22;12088;53.078;8.720;2022-08-18T11:32:34;30.70;99.90
23815;DHT22;12088;53.078;8.720;2022-08-18T11:35:43;29.60;99.90
23815;DHT22;12088;53.078;8.720;2022-08-18T11:38:13;28.50;99.90
23815;DHT22;12088;53.078;8.720;2022-08-18T11:40:41;27.80;99.90
23815;DHT22;12088;53.078;8.720;2022-08-18T11:45:50;27.20;99.90
23815;DHT22;12088;53.078;8.720;2022-08-18T11:51:17;27.00;99.90
23815;DHT22;12088;53.078;8.720;2022-08-18T11:58:59;27.20;99.90
23815;DHT22;12088;53.078;8.720;2022-08-18T12:04:09;27.10;99.90
23815;DHT22;12088;53.078;8.720;2022-08-18T12:07:03;27.30;99.90
23815;DHT22;12088;53.078;8.720;2022-08-18T12:10:08;27.50;99.90
23815;DHT22;12088;53.078;8.720;2022-08-18T12:12:44;27.90;99.90
23815;DHT22;12088;53.078;8.720;2022-08-18T12:17:36;28.50;99.90
23815;DHT22;12088;53.078;8.720;2022-08-18T12:20:02;28.50;99.90
23815;DHT22;12088;53.078;8.720;2022-08-18T12:22:30;28.90;99.90
23815;DHT22;12088;53.078;8.720;2022-08-18T12:24:56;28.90;99.90
23815;DHT22;12088;53.078;8.720;2022-08-18T12:27:24;28.90;99.90
23815;DHT22;12088;53.078;8.720;2022-08-18T12:29:51;28.80;99.90
23815;DHT22;12088;53.078;8.720;2022-08-18T12:32:19;28.60;99.90
23815;DHT22;12088;53.078;8.720;2022-08-18T12:34:44;28.20;99.90
23815;DHT22;12088;53.078;8.720;2022-08-18T12:37:15;28.20;99.90
23815;DHT22;12088;53.078;8.720;2022-08-18T12:39:41;28.00;99.90
23815;DHT22;12088;53.078;8.720;2022-08-18T12:42:07;27.80;99.90
23815;DHT22;12088;53.078;8.720;2022-08-18T12:44:32;27.50;99.90
23815;DHT22;12088;53.078;8.720;2022-08-18T12:47:04;27.30;99.90
23815;DHT22;12088;53.078;8.720;2022-08-18T12:49:31;27.30;99.90
23815;DHT22;12088;53.078;8.720;2022-08-18T12:51:57;27.20;99.90
23815;DHT22;12088;53.078;8.720;2022-08-18T12:54:23;26.90;99.90
23815;DHT22;12088;53.078;8.720;2022-08-18T12:56:50;27.00;99.90
23815;DHT22;12088;53.078;8.720;2022-08-18T12:59:18;27.30;99.90
23815;DHT22;12088;53.078;8.720;2022-08-18T13:01:44;27.40;99.90
23815;DHT22;12088;53.078;8.720;2022-08-18T13:04:09;27.70;99.90
23815;DHT22;12088;53.078;8.720;2022-08-18T13:06:37;27.70;99.90
23815;DHT22;12088;53.078;8.720;2022-08-18T13:09:06;28.20;99.90
23815;DHT22;12088;53.078;8.720;2022-08-18T13:11:32;28.60;99.90
23815;DHT22;12088;53.078;8.720;2022-08-18T13:13:57;29.00;99.90
23815;DHT22;12088;53.078;8.720;2022-08-18T13:16:34;29.30;99.90
23815;DHT22;12088;53.078;8.720;2022-08-18T13:18:59;29.40;99.90
23815;DHT22;12088;53.078;8.720;2022-08-18T13:21:26;29.30;99.90
23815;DHT22;12088;53.078;8.720;2022-08-18T13:23:52;29.30;99.90
23815;DHT22;12088;53.078;8.720;2022-08-18T13:26:24;29.10;99.90
23815;DHT22;12088;53.078;8.720;2022-08-18T13:28:50;29.10;99.90
23815;DHT22;12088;53.078;8.720;2022-08-18T13:31:16;28.80;99.90
23815;DHT22;12088;53.078;8.720;2022-08-18T13:33:41;28.90;99.90
23815;DHT22;12088;53.078;8.720;2022-08-18T13:36:07;28.50;99.90
23815;DHT22;12088;53.078;8.720;2022-08-18T13:38:33;28.20;99.90
23815;DHT22;12088;53.078;8.720;2022-08-18T13:40:59;28.10;99.90
23815;DHT22;12088;53.078;8.720;2022-08-18T13:43:34;27.90;99.90
23815;DHT22;12088;53.078;8.720;2022-08-18T13:46:01;27.90;99.90
23815;DHT22;12088;53.078;8.720;2022-08-18T13:48:27;27.90;99.90
23815;DHT22;12088;53.078;8.720;2022-08-18T13:50:55;27.80;99.90
23815;DHT22;12088;53.078;8.720;2022-08-18T13:53:22;27.70;99.90
23815;DHT22;12088;53.078;8.720;2022-08-18T13:55:49;27.70;99.90
23815;DHT22;12088;53.078;8.720;2022-08-18T13:58:14;27.70;99.90
23815;DHT22;12088;53.078;8.720;2022-08-18T14:00:40;27.50;99.90
23815;DHT22;12088;53.078;8.720;2022-08-18T14:03:07;27.30;99.90
23815;DHT22;12088;53.078;8.720;2022-08-18T14:05:34;27.30;99.90
23815;DHT22;12088;53.078;8.720;2022-08-18T14:08:00;27.20;99.90
23815;DHT22;12088;53.078;8.720;2022-08-18T14:10:26;27.20;99.90
23815;DHT22;12088;53.078;8.720;2022-08-18T14:12:55;27.20;99.90
23815;DHT22;12088;53.078;8.720;2022-08-18T14:15:22;27.10;99.90
23815;DHT22;12088;53.078;8.720;2022-08-18T14:17:48;27.60;99.90
23815;DHT22;12088;53.078;8.720;2022-08-18T14:20:14;28.40;99.90
23815;DHT22;12088;53.078;8.720;2022-08-18T14:22:59;28.80;99.90
23815;DHT22;12088;53.078;8.720;2022-08-18T14:25:44;28.90;99.90
23815;DHT22;12088;53.078;8.720;2022-08-18T14:28:28;28.90;99.90
23815;DHT22;12088;53.078;8.720;2022-08-18T14:30:56;28.60;99.90
23815;DHT22;12088;53.078;8.720;2022-08-18T14:33:23;28.70;99.90
23815;DHT22;12088;53.078;8.720;2022-08-18T14:35:49;29.30;99.90
23815;DHT22;12088;53.078;8.720;2022-08-18T14:38:14;30.00;99.90
23815;DHT22;12088;53.078;8.720;2022-08-18T14:40:41;30.80;99.90
23815;DHT22;12088;53.078;8.720;2022-08-18T14:43:08;31.30;99.90
23815;DHT22;12088;53.078;8.720;2022-08-18T14:45:33;31.80;99.90
23815;DHT22;12088;53.078;8.720;2022-08-18T14:47:59;31.90;99.90
23815;DHT22;12088;53.078;8.720;2022-08-18T14:50:24;32.10;99.90
23815;DHT22;12088;53.078;8.720;2022-08-18T14:52:51;32.60;99.90
23815;DHT22;12088;53.078;8.720;2022-08-18T14:55:17;32.40;99.90
23815;DHT22;12088;53.078;8.720;2022-08-18T14:57:43;31.60;99.90
23815;DHT22;12088;53.078;8.720;2022-08-18T15:00:13;30.80;99.90
23815;DHT22;12088;53.078;8.720;2022-08-18T15:02:41;30.40;99.90
23815;DHT22;12088;53.078;8.720;2022-08-18T15:05:07;29.80;99.90
23815;DHT22;12088;53.078;8.720;2022-08-18T15:07:33;29.80;99.90
23815;DHT22;12088;53.078;8.720;2022-08-18T15:09:59;29.50;99.90
23815;DHT22;12088;53.078;8.720;2022-08-18T15:12:25;29.60;99.90
23815;DHT22;12088;53.078;8.720;2022-08-18T15:14:52;28.60;99.90
23815;DHT22;12088;53.078;8.720;2022-08-18T15:17:18;28.70;99.90
23815;DHT22;12088;53.078;8.720;2022-08-18T15:19:43;28.00;99.90
23815;DHT22;12088;53.078;8.720;2022-08-18T15:22:11;27.60;99.90
23815;DHT22;12088;53.078;8.720;2022-08-18T15:24:55;27.40;99.90
23815;DHT22;12088;53.078;8.720;2022-08-18T15:27:39;27.40;99.90
23815;DHT22;12088;53.078;8.720;2022-08-18T15:30:08;27.00;99.90
23815;DHT22;12088;53.078;8.720;2022-08-18T15:32:35;26.80;99.90
23815;DHT22;12088;53.078;8.720;2022-08-18T15:35:01;27.00;99.90
23815;DHT22;12088;53.078;8.720;2022-08-18T15:37:27;27.10;99.90
23815;DHT22;12088;53.078;8.720;2022-08-18T15:40:49;26.90;99.90
23815;DHT22;12088;53.078;8.720;2022-08-18T15:42:50;26.70;99.90
23815;DHT22;12088;53.078;8.720;2022-08-18T15:45:22;26.50;99.90
23815;DHT22;12088;53.078;8.720;2022-08-18T15:47:50;26.40;99.90
23815;DHT22;12088;53.078;8.720;2022-08-18T15:50:16;25.90;99.90
23815;DHT22;12088;53.078;8.720;2022-08-18T15:53:00;25.40;99.90
23815;DHT22;12088;53.078;8.720;2022-08-18T15:55:29;25.20;99.90
23815;DHT22;12088;53.078;8.720;2022-08-18T15:57:55;25.20;99.90
23815;DHT22;12088;53.078;8.720;2022-08-18T16:00:22;25.30;99.90
23815;DHT22;12088;53.078;8.720;2022-08-18T16:02:53;25.20;99.90
23815;DHT22;12088;53.078;8.720;2022-08-18T16:05:23;24.90;99.90
23815;DHT22;12088;53.078;8.720;2022-08-18T16:07:50;24.90;99.90
23815;DHT22;12088;53.078;8.720;2022-08-18T16:10:18;24.80;99.90
23815;DHT22;12088;53.078;8.720;2022-08-18T16:12:45;24.70;99.90
23815;DHT22;12088;53.078;8.720;2022-08-18T16:15:13;24.50;99.90
23815;DHT22;12088;53.078;8.720;2022-08-18T16:17:39;24.40;99.90
23815;DHT22;12088;53.078;8.720;2022-08-18T16:20:05;24.30;99.90
23815;DHT22;12088;53.078;8.720;2022-08-18T16:22:33;24.20;99.90
23815;DHT22;12088;53.078;8.720;2022-08-18T16:24:58;24.00;99.90
23815;DHT22;12088;53.078;8.720;2022-08-18T16:27:26;23.80;99.90
23815;DHT22;12088;53.078;8.720;2022-08-18T16:29:56;23.70;99.90
23815;DHT22;12088;53.078;8.720;2022-08-18T16:32:21;23.50;99.90
23815;DHT22;12088;53.078;8.720;2022-08-18T16:34:47;23.50;99.90
23815;DHT22;12088;53.078;8.720;2022-08-18T16:37:12;23.40;99.90
23815;DHT22;12088;53.078;8.720;2022-08-18T16:39:38;23.30;99.90
23815;DHT22;12088;53.078;8.720;2022-08-18T16:42:03;23.10;99.90
23815;DHT22;12088;53.078;8.720;2022-08-18T16:44:31;23.10;99.90
23815;DHT22;12088;53.078;8.720;2022-08-18T16:46:57;23.00;99.90
23815;DHT22;12088;53.078;8.720;2022-08-18T16:49:26;22.90;99.90
23815;DHT22;12088;53.078;8.720;2022-08-18T16:51:51;22.80;99.90
23815;DHT22;12088;53.078;8.720;2022-08-18T16:54:17;22.80;99.90
23815;DHT22;12088;53.078;8.720;2022-08-18T16:56:43;22.80;99.90
23815;DHT22;12088;53.078;8.720;2022-08-18T16:59:08;22.70;99.90
23815;DHT22;12088;53.078;8.720;2022-08-18T17:01:52;22.70;99.90
23815;DHT22;12088;53.078;8.720;2022-08-18T17:04:37;22.50;99.90
23815;DHT22;12088;53.078;8.720;2022-08-18T17:07:04;22.50;99.90
23815;DHT22;12088;53.078;8.720;2022-08-18T17:09:30;22.40;99.90
23815;DHT22;12088;53.078;8.720;2022-08-18T17:11:57;22.30;99.90
23815;DHT22;12088;53.078;8.720;2022-08-18T17:14:25;22.30;99.90
23815;DHT22;12088;53.078;8.720;2022-08-18T17:16:52;22.30;99.90
23815;DHT22;12088;53.078;8.720;2022-08-18T17:19:23;22.30;99.90
23815;DHT22;12088;53.078;8.720;2022-08-18T17:21:49;22.20;99.90
23815;DHT22;12088;53.078;8.720;2022-08-18T17:24:14;22.10;99.90
23815;DHT22;12088;53.078;8.720;2022-08-18T17:26:58;22.30;99.90
23815;DHT22;12088;53.078;8.720;2022-08-18T17:29:32;22.30;99.90
23815;DHT22;12088;53.078;8.720;2022-08-18T17:32:02;22.30;99.90
23815;DHT22;12088;53.078;8.720;2022-08-18T17:34:37;22.20;99.90
23815;DHT22;12088;53.078;8.720;2022-08-18T17:37:12;22.20;99.90
23815;DHT22;12088;53.078;8.720;2022-08-18T17:39:48;22.10;99.90
23815;DHT22;12088;53.078;8.720;2022-08-18T17:42:14;22.10;99.90
23815;DHT22;12088;53.078;8.720;2022-08-18T17:44:55;22.00;99.90
23815;DHT22;12088;53.078;8.720;2022-08-18T17:47:29;21.90;99.90
23815;DHT22;12088;53.078;8.720;2022-08-18T17:49:57;21.80;99.90
23815;DHT22;12088;53.078;8.720;2022-08-18T17:52:46;21.70;99.90